createdAt,value
2022-12-15T00:02:28.396Z,38.67
2022-12-15T00:07:33.940Z,38.32
2022-12-15T00:12:39.379Z,38.09
2022-12-15T00:17:47.150Z,37.36
2022-12-15T00:22:52.572Z,37.44
2022-12-15T00:27:59.876Z,37.88
2022-12-15T00:33:11.864Z,37.83
2022-12-15T00:38:18.335Z,37.69
2022-12-15T00:43:20.809Z,37.32
2022-12-15T00:48:23.271Z,37.15
2022-12-15T00:53:29.200Z,36.63
2022-12-15T00:58:34.938Z,36.82
2022-12-15T01:03:40.673Z,36.75
2022-12-15T01:08:46.272Z,36.47
2022-12-15T01:13:51.683Z,36.42
2022-12-15T01:18:57.147Z,36.99
2022-12-15T01:23:59.576Z,37.28
2022-12-15T01:29:02.051Z,37.94
2022-12-15T01:34:04.847Z,38.23
2022-12-15T01:39:07.301Z,38.74
2022-12-15T01:44:16.101Z,39.50
2022-12-15T01:49:25.091Z,39.67
2022-12-15T01:54:30.433Z,39.11
2022-12-15T01:59:38.135Z,39.76
2022-12-15T02:04:41.593Z,40.37
2022-12-15T02:09:46.673Z,40.74
2022-12-15T02:14:55.186Z,40.23
2022-12-15T02:21:02.180Z,39.75
2022-12-15T02:26:23.035Z,39.77
2022-12-15T02:31:36.482Z,40.18
2022-12-15T02:36:44.887Z,40.47
2022-12-15T02:41:48.946Z,40.32
2022-12-15T02:46:57.286Z,40.16
2022-12-15T02:52:09.897Z,39.83
2022-12-15T02:57:19.854Z,39.65
2022-12-15T03:02:28.852Z,39.64
2022-12-15T03:07:31.424Z,39.78
2022-12-15T03:12:33.943Z,39.59
2022-12-15T03:17:38.194Z,39.91
2022-12-15T03:22:40.959Z,39.82
2022-12-15T03:27:45.679Z,39.49
2022-12-15T03:32:48.167Z,39.44
2022-12-15T03:37:50.669Z,39.64
2022-12-15T03:42:53.162Z,39.96
2022-12-15T03:47:56.778Z,39.98
2022-12-15T03:53:01.990Z,39.94
2022-12-15T03:58:04.497Z,39.87
2022-12-15T04:03:09.199Z,39.48
2022-12-15T04:08:12.749Z,39.15
2022-12-15T04:13:15.180Z,39.16
2022-12-15T04:18:17.641Z,39.53
2022-12-15T04:23:20.201Z,39.78
2022-12-15T04:28:25.740Z,39.44
2022-12-15T04:33:31.491Z,38.95
2022-12-15T04:38:37.077Z,39.01
2022-12-15T04:43:43.021Z,37.93
2022-12-15T04:48:50.697Z,39.83
2022-12-15T04:53:56.131Z,45.23
2022-12-15T04:59:01.989Z,47.79
2022-12-15T05:04:07.508Z,50.81
2022-12-15T05:09:12.934Z,53.04
2022-12-15T05:14:18.342Z,55.57
2022-12-15T05:19:23.743Z,65.30
2022-12-15T05:24:29.238Z,55.04
2022-12-15T05:29:34.678Z,49.44
2022-12-15T05:34:38.047Z,46.55
2022-12-15T05:39:40.571Z,44.16
2022-12-15T05:44:43.218Z,42.87
2022-12-15T05:49:45.818Z,42.04
2022-12-15T05:54:48.292Z,41.02
2022-12-15T05:59:50.739Z,39.58
2022-12-15T06:04:53.198Z,44.21
2022-12-15T06:09:55.687Z,47.55
2022-12-15T06:14:58.903Z,50.83
2022-12-15T06:20:01.641Z,53.93
2022-12-15T06:25:04.589Z,56.81
2022-12-15T06:30:07.319Z,57.03
2022-12-15T06:35:09.808Z,65.47
2022-12-15T06:40:14.656Z,61.71
2022-12-15T06:45:17.266Z,51.26
2022-12-15T06:50:20.347Z,45.84
2022-12-15T06:55:22.868Z,44.53
2022-12-15T07:00:25.353Z,43.29
2022-12-15T07:05:27.803Z,42.73
2022-12-15T07:10:30.292Z,40.78
2022-12-15T07:15:32.891Z,44.76
2022-12-15T07:20:35.360Z,48.70
2022-12-15T07:25:40.544Z,52.83
2022-12-15T07:30:43.054Z,56.11
2022-12-15T07:35:54.673Z,56.94
2022-12-15T07:41:02.092Z,67.21
2022-12-15T07:46:05.530Z,59.84
2022-12-15T07:51:17.228Z,51.65
2022-12-15T07:56:21.720Z,54.27
2022-12-15T08:01:24.912Z,58.95
2022-12-15T08:06:27.738Z,67.18
2022-12-15T08:11:35.123Z,54.07
2022-12-15T08:16:37.787Z,53.87
2022-12-15T08:21:40.896Z,57.20
2022-12-15T08:26:44.437Z,61.82
2022-12-15T08:31:52.966Z,66.22
2022-12-15T08:36:55.759Z,52.78
2022-12-15T08:41:58.257Z,53.50
2022-12-15T08:47:00.727Z,61.83
2022-12-15T08:52:03.255Z,63.35
2022-12-15T08:57:05.997Z,54.18
2022-12-15T09:02:12.068Z,55.84
2022-12-15T09:07:14.646Z,58.17
2022-12-15T09:12:17.443Z,59.55
2022-12-15T09:17:22.248Z,69.63
2022-12-15T09:22:25.021Z,54.89
2022-12-15T09:27:28.995Z,53.55
2022-12-15T09:32:32.177Z,58.70
2022-12-15T09:37:34.714Z,64.11
2022-12-15T09:42:37.307Z,51.82
2022-12-15T09:47:45.695Z,53.43
2022-12-15T09:52:51.479Z,58.11
2022-12-15T09:57:57.332Z,60.96
2022-12-15T10:03:10.627Z,64.28
2022-12-15T10:08:14.872Z,50.70
2022-12-15T10:13:28.954Z,55.12
2022-12-15T10:18:39.877Z,64.91
2022-12-15T10:23:42.453Z,56.17
2022-12-15T10:28:58.858Z,56.87
2022-12-15T10:34:11.173Z,62.16
2022-12-15T10:39:16.211Z,62.08
2022-12-15T10:44:37.680Z,53.86
2022-12-15T10:49:40.233Z,55.67
2022-12-15T10:54:48.436Z,59.62
2022-12-15T10:59:52.309Z,65.46
2022-12-15T11:04:58.438Z,58.06
2022-12-15T11:10:08.156Z,52.93
2022-12-15T11:15:16.497Z,61.53
2022-12-15T11:20:23.443Z,61.80
2022-12-15T11:25:29.325Z,51.85
2022-12-15T11:30:38.479Z,55.75
2022-12-15T11:35:43.832Z,58.84
2022-12-15T11:40:46.527Z,64.32
2022-12-15T11:45:59.134Z,64.24
2022-12-15T11:51:11.858Z,53.59
2022-12-15T11:56:18.267Z,56.32
2022-12-15T12:01:51.679Z,58.60
2022-12-15T12:07:00.523Z,69.50
2022-12-15T12:12:07.834Z,58.92
2022-12-15T12:17:19.181Z,52.68
2022-12-15T12:22:27.997Z,58.21
2022-12-15T12:27:35.019Z,66.52
2022-12-15T12:32:50.753Z,57.63
2022-12-15T12:38:03.127Z,52.83
2022-12-15T12:43:13.507Z,57.31
2022-12-15T12:48:29.657Z,64.24
2022-12-15T12:53:34.860Z,65.13
2022-12-15T12:58:41.306Z,52.58
2022-12-15T13:03:44.035Z,55.10
2022-12-15T13:08:51.392Z,58.51
2022-12-15T13:13:54.384Z,68.11
2022-12-15T13:18:58.889Z,56.88
2022-12-15T13:24:02.084Z,53.40
2022-12-15T13:29:53.261Z,58.27
2022-12-15T13:34:57.027Z,60.49
2022-12-15T13:39:59.639Z,70.52
2022-12-15T13:45:15.023Z,62.61
2022-12-15T13:50:30.650Z,52.16
2022-12-15T13:55:37.785Z,56.16
2022-12-15T14:00:50.818Z,59.21
2022-12-15T14:05:56.096Z,61.19
2022-12-15T14:11:16.552Z,69.21
2022-12-15T14:16:24.714Z,62.63
2022-12-15T14:21:27.308Z,53.38
2022-12-15T14:26:31.579Z,58.18
2022-12-15T14:31:37.205Z,65.94
2022-12-15T14:36:42.078Z,63.65
2022-12-15T14:41:48.913Z,52.67
2022-12-15T14:46:51.881Z,55.77
2022-12-15T14:52:01.811Z,59.54
2022-12-15T14:57:09.226Z,67.71
2022-12-15T15:02:14.860Z,62.15
2022-12-15T15:07:19.040Z,53.48
2022-12-15T15:12:24.595Z,57.24
2022-12-15T15:17:35.732Z,61.10
2022-12-15T15:22:40.615Z,70.91
2022-12-15T15:27:43.118Z,60.23
2022-12-15T15:32:52.532Z,52.73
2022-12-15T15:38:02.752Z,58.61
2022-12-15T15:43:10.722Z,59.60
2022-12-15T15:48:23.156Z,61.78
2022-12-15T15:53:27.161Z,71.90
2022-12-15T15:58:30.177Z,61.38
2022-12-15T16:03:33.113Z,54.36
2022-12-15T16:08:37.137Z,51.08
2022-12-15T16:13:39.811Z,49.58
2022-12-15T16:18:42.277Z,48.05
2022-12-15T16:23:46.926Z,47.14
2022-12-15T16:28:49.409Z,46.55
2022-12-15T16:33:51.849Z,45.81
2022-12-15T16:38:56.926Z,45.67
2022-12-15T16:43:59.421Z,45.29
2022-12-15T16:49:04.259Z,45.42
2022-12-15T16:54:07.113Z,45.87
2022-12-15T16:59:32.564Z,46.45
2022-12-15T17:04:36.174Z,46.85
2022-12-15T17:09:38.668Z,47.50
2022-12-15T17:14:41.184Z,47.88
2022-12-15T17:19:58.046Z,47.69
2022-12-15T17:25:12.654Z,47.58
2022-12-15T17:30:16.097Z,47.47
2022-12-15T17:35:18.619Z,47.39
2022-12-15T17:40:24.033Z,47.02
2022-12-15T17:45:26.550Z,47.61
2022-12-15T17:50:30.548Z,47.21
2022-12-15T17:55:35.390Z,47.09
2022-12-15T18:00:42.007Z,47.13
2022-12-15T18:05:49.434Z,47.14
2022-12-15T18:10:55.379Z,46.64
2022-12-15T18:15:57.975Z,47.58
2022-12-15T18:21:07.881Z,47.53
2022-12-15T18:26:14.646Z,47.67
2022-12-15T18:31:21.464Z,47.56
2022-12-15T18:36:24.315Z,47.44
2022-12-15T18:41:26.834Z,47.62
2022-12-15T18:46:29.587Z,48.01
2022-12-15T18:51:32.212Z,48.11
2022-12-15T18:56:34.731Z,48.19
2022-12-15T19:01:37.389Z,48.50
2022-12-15T19:06:40.835Z,48.68
2022-12-15T19:11:49.450Z,48.09
2022-12-15T19:16:54.885Z,47.90
2022-12-15T19:22:17.864Z,47.11
2022-12-15T19:27:23.375Z,46.31
2022-12-15T19:32:26.671Z,45.89
2022-12-15T19:37:31.112Z,45.91
2022-12-15T19:42:36.804Z,51.54
2022-12-15T19:47:39.311Z,55.04
2022-12-15T19:52:43.538Z,62.32
2022-12-15T19:57:46.559Z,66.15
2022-12-15T20:02:51.829Z,52.50
2022-12-15T20:07:55.004Z,55.13
2022-12-15T20:12:57.802Z,59.12
2022-12-15T20:18:00.268Z,64.41
2022-12-15T20:23:14.304Z,66.42
2022-12-15T20:28:21.154Z,54.84
2022-12-15T20:33:23.794Z,56.16
2022-12-15T20:38:33.865Z,64.67
2022-12-15T20:43:36.929Z,63.22
2022-12-15T20:48:39.863Z,53.07
2022-12-15T20:53:43.696Z,55.91
2022-12-15T20:58:46.437Z,59.71
2022-12-15T21:03:51.889Z,66.76
2022-12-15T21:08:55.911Z,61.94
2022-12-15T21:14:03.900Z,53.61
2022-12-15T21:19:22.827Z,56.27
2022-12-15T21:24:28.081Z,58.28
2022-12-15T21:29:30.997Z,68.10
2022-12-15T21:34:34.511Z,61.28
2022-12-15T21:39:37.248Z,54.38
2022-12-15T21:44:39.903Z,58.53
2022-12-15T21:49:42.383Z,59.91
2022-12-15T21:54:44.885Z,60.44
2022-12-15T21:59:47.342Z,70.24
2022-12-15T22:04:51.650Z,63.89
2022-12-15T22:09:54.181Z,53.53
2022-12-15T22:14:57.366Z,55.37
2022-12-15T22:19:59.829Z,58.47
2022-12-15T22:25:02.453Z,60.19
2022-12-15T22:30:13.403Z,69.84
2022-12-15T22:35:25.432Z,64.84
2022-12-15T22:40:28.157Z,54.73
2022-12-15T22:45:30.642Z,56.17
2022-12-15T22:50:33.622Z,59.43
2022-12-15T22:55:36.363Z,67.69
2022-12-15T23:00:39.048Z,63.14
2022-12-15T23:05:42.339Z,54.67
2022-12-15T23:11:01.207Z,56.50
2022-12-15T23:16:23.709Z,60.33
2022-12-15T23:21:26.572Z,69.59
2022-12-15T23:26:29.104Z,62.16
2022-12-15T23:31:31.769Z,53.55
2022-12-15T23:36:34.403Z,56.68
2022-12-15T23:41:36.917Z,59.05
2022-12-15T23:46:39.452Z,62.95
2022-12-15T23:51:41.951Z,70.73
2022-12-15T23:56:44.489Z,59.34
